Time;durP1;ratioP1;P1;durP2;ratioP2;P2;SDS_P1;SDS_P2;PMS_P1;PMS_P2;Temp;Humidity;BMP_temperature;BMP_pressure;BME280_temperature;BME280_humidity;BME280_pressure;Samples;Min_cycle;Max_cycle;Signal;HPM_P1;HPM_P2
2022/11/20 08:26:39;;;;;;;5.13;4.07;;;4.90;99.90;;;;;;5120843;27;20285;-80
2022/11/20 08:29:06;;;;;;;4.43;2.63;;;5.00;99.90;;;;;;5120043;28;20175;-81
2022/11/20 08:31:32;;;;;;;3.37;2.73;;;5.20;99.90;;;;;;5120170;28;20422;-81
2022/11/20 08:33:58;;;;;;;4.33;2.77;;;5.30;99.90;;;;;;5120047;28;21013;-80
2022/11/20 08:36:24;;;;;;;2.97;2.50;;;5.30;99.90;;;;;;5120043;28;20487;-82
2022/11/20 08:38:52;;;;;;;5.77;3.70;;;5.30;99.90;;;;;;5121500;28;20181;-81
2022/11/20 08:41:27;;;;;;;23.20;10.07;;;5.70;99.90;;;;;;5122103;28;20222;-81
2022/11/20 08:43:59;;;;;;;6.57;4.37;;;6.40;99.90;;;;;;5120446;28;20411;-82
2022/11/20 08:46:26;;;;;;;17.80;11.67;;;6.80;99.90;;;;;;5120629;28;20228;-81
2022/11/20 08:48:52;;;;;;;7.17;4.53;;;7.30;99.90;;;;;;5120806;28;20510;-83
2022/11/20 08:51:19;;;;;;;7.83;5.10;;;7.40;99.90;;;;;;5121044;28;20191;-81
2022/11/20 08:53:45;;;;;;;7.57;6.33;;;7.10;99.90;;;;;;5123934;28;20202;-81
2022/11/20 08:56:11;;;;;;;2.63;2.43;;;6.70;99.90;;;;;;5122977;28;20193;-82
2022/11/20 08:58:38;;;;;;;5.47;3.03;;;6.10;99.90;;;;;;5126661;28;20184;-81
2022/11/20 09:01:04;;;;;;;3.00;2.70;;;6.00;99.90;;;;;;5128896;28;20182;-82
2022/11/20 09:03:29;;;;;;;2.83;1.90;;;6.80;99.90;;;;;;5133354;28;20173;-81
2022/11/20 09:06:00;;;;;;;1.80;1.60;;;7.70;99.90;;;;;;5132083;28;20209;-80
2022/11/20 09:08:26;;;;;;;2.37;1.70;;;7.90;99.90;;;;;;5123998;28;20250;-82
2022/11/20 09:10:56;;;;;;;1.87;1.63;;;8.00;99.90;;;;;;5119392;28;20172;-82
2022/11/20 09:13:23;;;;;;;1.83;1.63;;;8.40;99.90;;;;;;5116933;28;20182;-81
2022/11/20 09:15:59;;;;;;;1.50;1.40;;;8.30;99.90;;;;;;5118207;28;20203;-81
2022/11/20 09:18:26;;;;;;;1.60;1.50;;;8.30;99.90;;;;;;5119667;28;20182;-82
2022/11/20 09:20:51;;;;;;;2.40;1.97;;;8.40;99.90;;;;;;5122681;28;20171;-81
2022/11/20 09:23:17;;;;;;;1.83;1.47;;;8.70;99.90;;;;;;5122113;28;20529;-82
2022/11/20 09:25:43;;;;;;;1.20;1.03;;;9.10;99.90;;;;;;5117802;28;20218;-81
2022/11/20 09:28:09;;;;;;;2.67;1.43;;;9.10;99.90;;;;;;5119424;28;20172;-81
2022/11/20 09:30:35;;;;;;;2.23;1.40;;;9.10;99.90;;;;;;5120274;28;20164;-81
2022/11/20 09:33:00;;;;;;;2.30;1.43;;;9.00;99.90;;;;;;5120996;28;20164;-81
2022/11/20 09:35:26;;;;;;;1.70;1.27;;;8.60;99.90;;;;;;5120229;28;20195;-81
2022/11/20 09:37:52;;;;;;;1.57;1.27;;;8.20;99.90;;;;;;5107826;28;20239;-82
2022/11/20 09:40:21;;;;;;;2.47;1.17;;;8.90;99.90;;;;;;5106356;28;20253;-82
2022/11/20 09:43:24;;;;;;;1.40;1.20;;;9.40;99.90;;;;;;5107753;28;20173;-82
2022/11/20 09:46:07;;;;;;;1.13;1.03;;;9.40;99.90;;;;;;5105984;28;20238;-82
2022/11/20 09:48:59;;;;;;;2.03;1.40;;;8.30;99.90;;;;;;5106592;28;20164;-82
2022/11/20 09:51:46;;;;;;;1.63;1.30;;;7.90;99.90;;;;;;5106636;28;20160;-82
2022/11/20 09:54:44;;;;;;;1.60;1.17;;;7.50;99.90;;;;;;5106936;28;20206;-82
2022/11/20 09:57:18;;;;;;;1.97;1.10;;;7.10;99.90;;;;;;5095851;28;20195;-82
2022/11/20 09:59:50;;;;;;;3.07;1.47;;;6.70;99.90;;;;;;5107904;28;20171;-82
2022/11/20 10:02:27;;;;;;;3.00;1.40;;;6.80;99.90;;;;;;5107717;28;20165;-83
2022/11/20 10:05:10;;;;;;;1.20;1.10;;;7.00;99.90;;;;;;5112173;28;20175;-81
2022/11/20 10:07:42;;;;;;;2.20;1.43;;;6.60;99.90;;;;;;5118381;28;20168;-81
2022/11/20 10:10:26;;;;;;;2.20;1.40;;;6.50;99.90;;;;;;5118661;28;20255;-82
2022/11/20 10:13:10;;;;;;;1.83;1.40;;;7.00;99.90;;;;;;5118160;28;20213;-82
2022/11/20 10:15:52;;;;;;;1.40;1.03;;;7.40;99.90;;;;;;5112089;28;20199;-82
2022/11/20 10:18:21;;;;;;;1.97;1.13;;;8.30;99.90;;;;;;5102890;28;20528;-83
2022/11/20 10:21:05;;;;;;;1.87;1.50;;;8.70;99.90;;;;;;5104260;28;20236;-83
2022/11/20 10:23:46;;;;;;;2.10;1.80;;;8.60;99.90;;;;;;5103174;28;20674;-81
2022/11/20 10:26:18;;;;;;;1.87;1.30;;;8.90;99.90;;;;;;5103283;28;20218;-83
2022/11/20 10:29:07;;;;;;;2.97;2.00;;;9.30;99.90;;;;;;5103291;28;20180;-82
2022/11/20 10:31:34;;;;;;;1.20;1.10;;;8.60;99.90;;;;;;5103201;28;20228;-82
2022/11/20 10:34:05;;;;;;;1.63;1.30;;;8.30;99.90;;;;;;5104904;28;20236;-82
2022/11/20 10:36:38;;;;;;;1.70;1.30;;;8.50;99.90;;;;;;5105735;28;20192;-83
2022/11/20 10:39:17;;;;;;;2.10;1.13;;;9.00;99.90;;;;;;5106471;28;20190;-82
2022/11/20 10:41:46;;;;;;;1.83;1.53;;;9.50;99.90;;;;;;5105324;28;20203;-83
2022/11/20 10:45:00;;;;;;;1.43;1.17;;;9.50;99.90;;;;;;5103168;28;20237;-83
2022/11/20 10:47:03;;;;;;;1.30;1.20;;;9.70;99.90;;;;;;5103927;28;20681;-82
2022/11/20 10:49:32;;;;;;;1.57;1.47;;;9.70;99.90;;;;;;5101702;28;20242;-82
2022/11/20 10:52:39;;;;;;;1.73;1.50;;;9.60;99.90;;;;;;5102700;28;20176;-83
2022/11/20 10:55:23;;;;;;;2.30;1.30;;;8.80;99.90;;;;;;5083793;28;20200;-82
2022/11/20 10:57:55;;;;;;;1.90;1.53;;;8.00;99.90;;;;;;5102338;28;20263;-82
2022/11/20 11:00:21;;;;;;;2.03;1.40;;;8.30;99.90;;;;;;5103966;28;20662;-82
2022/11/20 11:02:56;;;;;;;3.67;1.60;;;9.10;99.90;;;;;;5102660;28;20199;-82
2022/11/20 11:05:39;;;;;;;2.90;1.67;;;9.40;99.90;;;;;;5103903;28;20238;-82
2022/11/20 11:08:13;;;;;;;1.40;1.30;;;9.20;99.90;;;;;;5105649;28;20150;-82
2022/11/20 11:10:44;;;;;;;1.77;1.23;;;9.60;99.90;;;;;;5105529;28;20598;-83
2022/11/20 11:13:26;;;;;;;1.57;1.40;;;9.40;99.90;;;;;;5106407;28;20195;-82
2022/11/20 11:15:53;;;;;;;2.40;1.50;;;8.70;99.90;;;;;;5102408;28;20201;-81
2022/11/20 11:18:26;;;;;;;2.97;1.60;;;8.20;99.90;;;;;;5102976;28;20180;-82
2022/11/20 11:20:53;;;;;;;3.27;1.67;;;8.10;99.90;;;;;;5104400;28;20172;-82
2022/11/20 11:23:34;;;;;;;1.13;1.03;;;8.30;99.90;;;;;;5102326;28;20544;-82
2022/11/20 11:26:01;;;;;;;1.20;1.10;;;9.10;99.90;;;;;;5104200;28;20203;-82
2022/11/20 11:28:28;;;;;;;1.30;1.20;;;9.40;99.90;;;;;;5102481;28;20172;-82
2022/11/20 11:30:54;;;;;;;4.30;1.83;;;8.90;99.90;;;;;;5102590;28;20176;-82
2022/11/20 11:33:23;;;;;;;3.97;1.40;;;8.80;99.90;;;;;;5103322;28;20544;-83
2022/11/20 11:36:17;;;;;;;2.67;1.60;;;8.40;99.90;;;;;;5103669;28;20226;-82
2022/11/20 11:38:44;;;;;;;1.40;1.30;;;8.20;99.90;;;;;;5098738;28;20191;-82
2022/11/20 11:41:16;;;;;;;2.57;2.37;;;7.70;99.90;;;;;;5105214;28;20172;-83
2022/11/20 11:46:40;;;;;;;21.87;15.37;;;7.10;99.90;;;;;;5104304;28;20211;-81
2022/11/20 11:49:09;;;;;;;27.30;16.60;;;6.80;99.90;;;;;;5101695;28;20176;-82
2022/11/20 11:51:52;;;;;;;11.40;8.63;;;6.70;99.90;;;;;;5104276;28;20641;-81
2022/11/20 11:54:49;;;;;;;4.67;3.70;;;6.70;99.90;;;;;;5103680;28;20171;-82
2022/11/20 11:57:28;;;;;;;5.23;4.50;;;6.60;99.90;;;;;;5100029;28;20204;-82
2022/11/20 12:00:09;;;;;;;2.40;2.17;;;6.40;99.90;;;;;;5099587;28;20527;-81
2022/11/20 12:02:49;;;;;;;5.40;5.00;;;6.40;99.90;;;;;;5099088;28;20181;-81
2022/11/20 12:05:30;;;;;;;5.87;5.37;;;6.30;99.90;;;;;;5101607;28;20215;-82
2022/11/20 12:08:05;;;;;;;5.07;4.03;;;6.20;99.90;;;;;;5110129;28;20240;-82
2022/11/20 12:10:40;;;;;;;6.70;6.10;;;6.00;99.90;;;;;;5116148;28;20187;-82
2022/11/20 12:13:39;;;;;;;2.73;2.53;;;5.90;99.90;;;;;;5114342;28;20172;-82
2022/11/20 12:16:05;;;;;;;2.33;2.13;;;5.80;99.90;;;;;;5104697;28;20260;-82
2022/11/20 12:18:31;;;;;;;2.33;2.13;;;5.80;99.90;;;;;;5101365;28;20178;-81
2022/11/20 12:21:22;;;;;;;6.60;5.77;;;5.80;99.90;;;;;;5100940;28;20172;-82
2022/11/20 12:24:22;;;;;;;5.27;4.87;;;5.90;99.90;;;;;;5101230;28;20592;-81
2022/11/20 12:27:00;;;;;;;3.07;2.60;;;5.90;99.90;;;;;;5103222;28;20204;-81
2022/11/20 12:29:47;;;;;;;1.80;1.70;;;6.00;99.90;;;;;;5102995;28;20174;-81
2022/11/20 12:32:15;;;;;;;2.47;2.30;;;6.00;99.90;;;;;;5101627;28;20168;-81
2022/11/20 12:34:55;;;;;;;2.93;2.13;;;6.10;99.90;;;;;;5103727;28;20724;-81
2022/11/20 12:37:53;;;;;;;11.87;10.80;;;6.10;99.90;;;;;;5103206;28;20173;-81
2022/11/20 12:40:49;;;;;;;2.50;2.10;;;6.30;99.90;;;;;;5104939;28;20195;-81
2022/11/20 12:46:29;;;;;;;2.00;1.90;;;6.40;99.90;;;;;;5107006;28;20568;-81
2022/11/20 12:49:14;;;;;;;1.97;1.53;;;6.40;99.90;;;;;;5104598;28;20153;-81
2022/11/20 12:51:59;;;;;;;3.07;2.37;;;6.40;99.90;;;;;;5100274;28;20185;-81
2022/11/20 12:54:36;;;;;;;2.13;1.40;;;6.30;99.90;;;;;;5102504;28;20164;-81
2022/11/20 12:57:21;;;;;;;1.40;1.30;;;6.30;99.90;;;;;;5100025;28;20561;-81
2022/11/20 13:00:10;;;;;;;20.17;11.77;;;6.30;99.90;;;;;;5100240;28;20172;-81
2022/11/20 13:03:07;;;;;;;3.43;3.13;;;6.30;99.90;;;;;;5100046;28;20509;-81
2022/11/20 13:06:12;;;;;;;4.03;2.27;;;6.50;99.90;;;;;;5101163;28;20220;-81
2022/11/20 13:08:45;;;;;;;1.90;1.70;;;6.50;99.90;;;;;;5099080;28;20174;-81
2022/11/20 13:11:37;;;;;;;2.37;1.90;;;6.60;99.90;;;;;;5099377;28;20608;-81
2022/11/20 13:14:22;;;;;;;2.57;2.03;;;6.70;99.90;;;;;;5101971;28;20153;-80
2022/11/20 13:17:02;;;;;;;1.80;1.70;;;6.50;99.90;;;;;;5103109;28;20223;-81
2022/11/20 13:19:29;;;;;;;2.70;2.03;;;6.40;99.90;;;;;;5102871;28;20685;-81
2022/11/20 13:21:55;;;;;;;2.40;2.20;;;6.40;99.90;;;;;;5103146;28;20662;-81
2022/11/20 13:24:25;;;;;;;2.00;1.60;;;6.30;99.90;;;;;;5103450;28;20250;-81
2022/11/20 13:27:23;;;;;;;5.00;3.10;;;6.20;99.90;;;;;;5104017;28;20216;-81
2022/11/20 13:30:15;;;;;;;2.70;2.50;;;6.10;99.90;;;;;;5079957;28;20216;-81
2022/11/20 13:33:08;;;;;;;3.03;2.73;;;5.90;99.90;;;;;;5102676;28;20231;-81
2022/11/20 13:35:41;;;;;;;2.20;2.00;;;5.80;99.90;;;;;;5093250;28;20209;-81
2022/11/20 13:38:12;;;;;;;2.60;2.27;;;5.70;99.90;;;;;;5101689;28;20162;-81
2022/11/20 13:41:27;;;;;;;3.33;3.03;;;5.70;99.90;;;;;;5104012;28;20240;-81
2022/11/20 13:43:47;;;;;;;2.50;2.30;;;5.70;99.90;;;;;;5102191;28;20188;-81
2022/11/20 13:46:14;;;;;;;3.83;3.43;;;5.90;99.90;;;;;;5103797;28;20205;-81
2022/11/20 13:48:43;;;;;;;4.33;4.03;;;5.90;99.90;;;;;;5101863;28;20184;-81
2022/11/20 13:51:27;;;;;;;3.10;2.80;;;6.00;99.90;;;;;;5102843;28;20216;-81
2022/11/20 13:54:00;;;;;;;4.80;4.37;;;5.90;99.90;;;;;;5102397;28;20167;-82
2022/11/20 13:56:44;;;;;;;4.57;3.97;;;5.90;99.90;;;;;;5103270;28;20549;-79
2022/11/20 13:59:32;;;;;;;5.33;3.70;;;5.90;99.90;;;;;;5104301;28;20178;-80
2022/11/20 14:02:00;;;;;;;3.83;2.97;;;5.80;99.90;;;;;;5101354;28;20618;-80
2022/11/20 14:04:42;;;;;;;3.10;2.80;;;5.80;99.90;;;;;;5104057;28;20189;-80
2022/11/20 14:07:09;;;;;;;4.27;3.87;;;5.70;99.90;;;;;;5102546;28;20201;-80
2022/11/20 14:09:35;;;;;;;15.93;10.60;;;5.70;99.90;;;;;;5103132;28;20177;-80
2022/11/20 14:12:02;;;;;;;2.43;2.10;;;5.60;99.90;;;;;;5102994;28;20538;-80
2022/11/20 14:14:30;;;;;;;3.07;2.13;;;5.60;99.90;;;;;;5102965;28;20180;-80
2022/11/20 14:17:16;;;;;;;3.23;1.83;;;5.50;99.90;;;;;;5110812;28;20192;-80
2022/11/20 14:19:44;;;;;;;1.90;1.80;;;5.50;99.90;;;;;;5112705;28;20610;-79
2022/11/20 14:22:21;;;;;;;5.80;2.30;;;5.50;99.90;;;;;;5112335;28;20185;-79
2022/11/20 14:25:07;;;;;;;4.07;2.37;;;5.50;99.90;;;;;;5105070;28;20215;-80
2022/11/20 14:27:38;;;;;;;1.90;1.80;;;5.50;99.90;;;;;;5099899;28;20185;-79
2022/11/20 14:30:06;;;;;;;4.13;2.20;;;5.40;99.90;;;;;;5102809;28;20181;-80
2022/11/20 14:32:35;;;;;;;7.30;6.03;;;5.40;99.90;;;;;;5104534;28;20169;-80
2022/11/20 14:35:08;;;;;;;2.40;2.20;;;5.40;99.90;;;;;;5103550;28;20176;-80
2022/11/20 14:37:37;;;;;;;6.93;6.23;;;5.50;99.90;;;;;;5103467;28;20215;-80
2022/11/20 14:40:21;;;;;;;5.50;3.60;;;5.40;99.90;;;;;;5103113;28;20249;-80
2022/11/20 14:42:47;;;;;;;88.07;33.77;;;5.30;99.90;;;;;;5101593;28;20188;-80
2022/11/20 14:45:13;;;;;;;22.20;10.13;;;5.30;99.90;;;;;;5101941;28;20463;-80
2022/11/20 14:47:40;;;;;;;10.90;6.73;;;5.30;99.90;;;;;;5101262;28;20205;-79
2022/11/20 14:50:23;;;;;;;4.57;3.20;;;5.20;99.90;;;;;;5102938;28;20179;-80
2022/11/20 14:53:06;;;;;;;6.33;4.53;;;5.20;99.90;;;;;;5104428;28;20192;-80
2022/11/20 14:55:38;;;;;;;3.67;2.80;;;5.20;99.90;;;;;;5103541;28;20438;-80
2022/11/20 14:58:23;;;;;;;9.07;2.73;;;5.20;99.90;;;;;;5103080;28;20414;-80
2022/11/20 15:01:03;;;;;;;3.07;2.40;;;5.20;99.90;;;;;;5103383;28;20186;-80
2022/11/20 15:03:41;;;;;;;4.10;3.27;;;5.20;99.90;;;;;;5103736;28;20418;-79
2022/11/20 15:06:10;;;;;;;3.37;2.57;;;5.20;99.90;;;;;;5103534;28;20211;-79
2022/11/20 15:08:36;;;;;;;2.90;1.77;;;5.10;99.90;;;;;;5103675;28;20407;-79
2022/11/20 15:11:03;;;;;;;3.10;2.80;;;5.10;99.90;;;;;;5105920;28;20168;-80
2022/11/20 15:13:34;;;;;;;4.77;4.37;;;5.10;99.90;;;;;;5109465;28;20168;-80
2022/11/20 15:16:17;;;;;;;2.83;2.20;;;5.00;99.90;;;;;;5111580;28;20188;-79
2022/11/20 15:18:43;;;;;;;3.27;2.73;;;5.00;99.90;;;;;;5110733;28;20402;-80
2022/11/20 15:21:14;;;;;;;4.20;2.50;;;4.90;99.90;;;;;;5104224;28;20730;-80
2022/11/20 15:23:40;;;;;;;2.53;2.33;;;4.90;99.90;;;;;;5102325;28;20218;-79
2022/11/20 15:26:07;;;;;;;3.33;2.40;;;4.80;99.90;;;;;;5101781;28;20219;-81
2022/11/20 15:28:40;;;;;;;3.50;3.00;;;4.70;99.90;;;;;;5103242;28;20190;-80
2022/11/20 15:31:06;;;;;;;3.27;2.50;;;4.70;99.90;;;;;;5100371;28;20244;-80
2022/11/20 15:33:33;;;;;;;20.77;5.60;;;4.70;99.90;;;;;;5100971;28;20453;-80
2022/11/20 15:35:59;;;;;;;6.57;3.63;;;4.60;99.90;;;;;;5101044;28;20203;-80
2022/11/20 15:38:25;;;;;;;2.50;2.30;;;;;;;;;;5102482;28;20172;-80
2022/11/20 15:40:51;;;;;;;3.70;2.93;;;;;;;;;;5101957;28;20425;-79
2022/11/20 15:43:17;;;;;;;8.53;6.80;;;4.30;99.90;;;;;;5102823;28;21009;-79
2022/11/20 15:45:59;;;;;;;3.57;3.17;;;4.40;99.90;;;;;;5101367;28;20545;-80
2022/11/20 15:48:28;;;;;;;3.00;2.70;;;4.30;99.90;;;;;;5102340;28;20164;-80
2022/11/20 15:51:07;;;;;;;9.63;7.33;;;4.30;99.90;;;;;;5105873;28;20444;-79
2022/11/20 15:53:33;;;;;;;3.50;3.03;;;4.20;99.90;;;;;;5112488;28;20406;-79
2022/11/20 15:55:58;;;;;;;4.27;2.90;;;4.20;99.90;;;;;;5111654;28;20460;-79
2022/11/20 15:58:24;;;;;;;7.73;3.57;;;4.20;99.90;;;;;;5111366;28;20179;-79
2022/11/20 16:00:50;;;;;;;6.27;4.67;;;4.10;99.90;;;;;;5104672;28;20203;-80
2022/11/20 16:03:17;;;;;;;6.07;5.37;;;4.10;99.90;;;;;;5102395;28;20176;-80
2022/11/20 16:05:43;;;;;;;6.47;4.60;;;4.00;99.90;;;;;;5102228;28;20833;-80
2022/11/20 16:08:09;;;;;;;23.43;13.87;;;4.00;99.90;;;;;;5102842;28;20488;-80
2022/11/20 16:10:35;;;;;;;21.00;12.47;;;3.90;99.90;;;;;;5101357;28;20422;-80
2022/11/20 16:15:52;;;;;;;50.43;27.73;;;3.90;99.90;;;;;;5103824;28;20206;-80
2022/11/20 16:18:20;;;;;;;48.97;27.37;;;3.80;99.90;;;;;;5101870;28;20172;-80
2022/11/20 16:20:50;;;;;;;15.73;8.70;;;3.80;99.90;;;;;;5105275;28;20447;-79
2022/11/20 16:23:15;;;;;;;14.67;7.60;;;3.80;99.90;;;;;;5098647;28;20414;-80
2022/11/20 16:25:42;;;;;;;28.83;14.57;;;3.80;99.90;;;;;;5098338;28;20610;-80
2022/11/20 16:28:08;;;;;;;12.33;7.47;;;3.80;99.90;;;;;;5098869;28;20172;-79
2022/11/20 16:30:34;;;;;;;9.83;7.37;;;3.70;99.90;;;;;;5098122;28;20513;-79
2022/11/20 16:33:02;;;;;;;11.47;8.10;;;3.70;99.90;;;;;;5098378;28;20204;-80
2022/11/20 16:35:30;;;;;;;5.70;4.37;;;3.70;99.90;;;;;;5100135;28;20435;-79
2022/11/20 16:37:56;;;;;;;38.83;20.57;;;3.70;99.90;;;;;;5101410;28;20434;-80
2022/11/20 16:40:23;;;;;;;9.00;7.20;;;3.70;99.90;;;;;;5099485;28;20422;-79
2022/11/20 16:42:49;;;;;;;6.17;4.80;;;;;;;;;;5096874;28;20824;-78
2022/11/20 16:45:15;;;;;;;4.87;3.47;;;3.70;99.90;;;;;;5097037;28;20466;-79
2022/11/20 16:47:41;;;;;;;5.00;4.50;;;3.70;99.90;;;;;;5102243;28;20774;-79
2022/11/20 16:50:06;;;;;;;5.10;4.60;;;3.70;99.90;;;;;;5102047;28;20180;-79
2022/11/20 16:52:32;;;;;;;7.73;6.80;;;3.70;99.90;;;;;;5105064;28;20180;-79
2022/11/20 16:54:58;;;;;;;3.97;3.50;;;3.70;99.90;;;;;;5104329;28;20180;-79
2022/11/20 16:57:26;;;;;;;5.43;4.33;;;3.70;99.90;;;;;;5102254;28;20285;-80
2022/11/20 16:59:52;;;;;;;4.53;3.77;;;3.70;99.90;;;;;;5104769;28;20263;-79
2022/11/20 17:02:17;;;;;;;7.10;4.00;;;3.80;99.90;;;;;;5104268;28;20453;-80
2022/11/20 17:04:43;;;;;;;6.70;6.00;;;3.70;99.90;;;;;;5099992;28;20187;-79
2022/11/20 17:07:09;;;;;;;6.87;5.07;;;3.70;99.90;;;;;;5100826;28;20215;-80
2022/11/20 17:09:35;;;;;;;13.57;9.53;;;3.80;99.90;;;;;;5104881;28;20172;-79
2022/11/20 17:12:01;;;;;;;10.57;8.10;;;3.70;99.90;;;;;;5103205;28;20437;-79
2022/11/20 17:14:26;;;;;;;12.03;8.57;;;3.70;99.90;;;;;;5102486;28;20263;-79
2022/11/20 17:16:52;;;;;;;9.80;8.07;;;3.60;99.90;;;;;;5101385;28;20192;-80
2022/11/20 17:19:17;;;;;;;12.80;9.90;;;3.40;99.90;;;;;;5099455;28;20172;-79
2022/11/20 17:21:43;;;;;;;11.17;8.57;;;3.30;99.90;;;;;;5100982;28;20252;-81
2022/11/20 17:24:10;;;;;;;14.07;8.33;;;3.10;99.90;;;;;;5105010;28;20184;-80
2022/11/20 17:26:38;;;;;;;12.60;9.00;;;3.20;99.90;;;;;;5106081;28;20274;-79
